createdAt,value
2019-03-23T00:01:11.698Z,5.55
2019-03-23T00:03:41.133Z,5.57
2019-03-23T00:06:10.563Z,5.55
2019-03-23T00:08:40.013Z,5.57
2019-03-23T00:11:09.530Z,5.50
2019-03-23T00:13:38.991Z,5.43
2019-03-23T00:16:08.538Z,5.42
2019-03-23T00:18:37.970Z,5.42
2019-03-23T00:21:07.444Z,5.36
2019-03-23T00:23:36.793Z,5.33
2019-03-23T00:26:06.347Z,5.29
2019-03-23T00:28:35.818Z,5.29
2019-03-23T00:31:05.341Z,5.23
2019-03-23T00:33:34.707Z,5.21
2019-03-23T00:36:04.232Z,5.15
2019-03-23T00:38:36.704Z,5.11
2019-03-23T00:41:06.179Z,5.05
2019-03-23T00:43:35.796Z,5.01
2019-03-23T00:46:06.296Z,5.00
2019-03-23T00:48:35.582Z,4.98
2019-03-23T00:51:06.717Z,4.94
2019-03-23T00:53:36.123Z,4.92
2019-03-23T00:56:05.517Z,4.91
2019-03-23T00:58:35.037Z,4.80
2019-03-23T01:01:04.548Z,4.81
2019-03-23T01:03:34.146Z,4.77
2019-03-23T01:06:03.677Z,4.77
2019-03-23T01:08:33.132Z,4.77
2019-03-23T01:11:02.468Z,4.77
2019-03-23T01:13:31.826Z,4.71
2019-03-23T01:16:01.483Z,4.72
2019-03-23T01:18:30.838Z,4.75
2019-03-23T01:21:00.125Z,4.72
2019-03-23T01:23:29.635Z,4.69
2019-03-23T01:25:59.099Z,4.64
2019-03-23T01:28:28.430Z,4.68
2019-03-23T01:30:57.796Z,4.56
2019-03-23T01:33:27.203Z,4.58
2019-03-23T01:35:56.642Z,4.56
2019-03-23T01:38:26.183Z,4.51
2019-03-23T01:40:55.599Z,4.58
2019-03-23T01:43:25.040Z,4.52
2019-03-23T01:45:54.356Z,4.56
2019-03-23T01:48:25.269Z,4.59
2019-03-23T01:50:54.612Z,4.60
2019-03-23T01:53:23.914Z,4.45
2019-03-23T01:55:53.377Z,4.55
2019-03-23T01:58:24.814Z,4.43
2019-03-23T02:00:54.186Z,4.35
2019-03-23T02:03:23.691Z,4.41
2019-03-23T02:05:53.200Z,4.35
2019-03-23T02:08:22.509Z,4.32
2019-03-23T02:10:51.815Z,4.30
2019-03-23T02:13:21.096Z,4.24
2019-03-23T02:15:50.480Z,4.22
2019-03-23T02:18:19.909Z,4.22
2019-03-23T02:20:49.369Z,4.18
2019-03-23T02:23:18.739Z,4.17
2019-03-23T02:25:48.074Z,4.16
2019-03-23T02:28:17.454Z,4.16
2019-03-23T02:30:46.798Z,4.08
2019-03-23T02:33:16.116Z,4.13
2019-03-23T02:35:45.508Z,4.12
2019-03-23T02:38:14.866Z,4.04
2019-03-23T02:40:44.411Z,4.01
2019-03-23T02:43:13.813Z,3.97
2019-03-23T02:45:43.202Z,3.97
2019-03-23T02:48:14.688Z,3.95
2019-03-23T02:50:44.151Z,3.95
2019-03-23T02:53:14.720Z,3.92
2019-03-23T02:55:44.150Z,3.86
2019-03-23T02:58:13.643Z,3.86
2019-03-23T03:00:43.177Z,3.82
2019-03-23T03:03:12.764Z,3.83
2019-03-23T03:05:42.349Z,3.79
2019-03-23T03:08:11.659Z,3.75
2019-03-23T03:10:41.939Z,3.78
2019-03-23T03:13:11.300Z,3.77
2019-03-23T03:15:40.738Z,3.69
2019-03-23T03:18:10.135Z,3.72
2019-03-23T03:20:39.983Z,3.68
2019-03-23T03:23:09.313Z,3.66
2019-03-23T03:25:38.763Z,3.57
2019-03-23T03:28:08.161Z,3.57
2019-03-23T03:30:37.442Z,3.59
2019-03-23T03:33:06.892Z,3.52
2019-03-23T03:35:36.410Z,3.50
2019-03-23T03:38:05.954Z,3.49
2019-03-23T03:40:35.349Z,3.48
2019-03-23T03:43:05.153Z,3.45
2019-03-23T03:45:34.419Z,3.46
2019-03-23T03:48:05.584Z,3.44
2019-03-23T03:50:35.089Z,3.47
2019-03-23T03:53:04.448Z,3.57
2019-03-23T03:55:33.816Z,3.48
2019-03-23T03:58:03.163Z,3.43
2019-03-23T04:00:32.572Z,3.42
2019-03-23T04:03:01.910Z,3.37
2019-03-23T04:05:31.314Z,3.40
2019-03-23T04:08:11.255Z,3.39
2019-03-23T04:10:31.845Z,3.40
2019-03-23T04:13:01.426Z,3.39
2019-03-23T04:15:30.750Z,3.45
2019-03-23T04:18:00.194Z,3.44
2019-03-23T04:20:29.726Z,3.40
2019-03-23T04:22:59.200Z,3.33
2019-03-23T04:25:28.601Z,3.39
2019-03-23T04:27:58.100Z,3.29
2019-03-23T04:30:27.589Z,3.32
2019-03-23T04:32:57.032Z,3.30
2019-03-23T04:35:26.354Z,3.32
2019-03-23T04:37:55.722Z,3.29
2019-03-23T04:40:25.154Z,3.30
2019-03-23T04:42:54.550Z,3.27
2019-03-23T04:45:23.956Z,3.23
2019-03-23T04:47:53.443Z,3.23
2019-03-23T04:50:22.822Z,3.23
2019-03-23T04:52:52.449Z,3.24
2019-03-23T04:55:21.874Z,3.24
2019-03-23T04:57:51.313Z,3.17
2019-03-23T05:00:21.578Z,3.16
2019-03-23T05:02:53.889Z,3.16
2019-03-23T05:05:23.197Z,3.18
2019-03-23T05:07:52.575Z,3.19
2019-03-23T05:10:22.007Z,3.18
2019-03-23T05:12:51.361Z,3.14
2019-03-23T05:15:20.930Z,3.03
2019-03-23T05:17:50.316Z,3.06
2019-03-23T05:20:37.689Z,3.08
2019-03-23T05:23:07.159Z,3.05
2019-03-23T05:25:36.588Z,3.06
2019-03-23T05:28:05.899Z,3.02
2019-03-23T05:30:35.288Z,3.00
2019-03-23T05:33:04.793Z,3.06
2019-03-23T05:35:34.302Z,3.17
2019-03-23T05:38:04.501Z,3.22
2019-03-23T05:40:33.965Z,3.21
2019-03-23T05:43:03.353Z,3.22
2019-03-23T05:45:32.836Z,3.29
2019-03-23T05:48:02.312Z,3.34
2019-03-23T05:50:31.594Z,3.39
2019-03-23T05:53:02.023Z,3.50
2019-03-23T05:55:31.339Z,3.58
2019-03-23T05:58:00.730Z,3.69
2019-03-23T06:00:30.024Z,3.79
2019-03-23T06:03:00.453Z,3.90
2019-03-23T06:05:29.787Z,4.01
2019-03-23T06:08:00.152Z,4.13
2019-03-23T06:10:30.591Z,4.23
2019-03-23T06:13:03.114Z,4.36
2019-03-23T06:15:32.566Z,4.50
2019-03-23T06:18:01.945Z,4.67
2019-03-23T06:20:31.620Z,4.86
2019-03-23T06:23:01.240Z,5.10
2019-03-23T06:25:30.856Z,5.38
2019-03-23T06:28:00.277Z,5.79
2019-03-23T06:30:29.658Z,6.22
2019-03-23T06:32:59.458Z,6.90
2019-03-23T06:35:28.967Z,7.58
2019-03-23T06:37:58.587Z,8.26
2019-03-23T06:40:28.040Z,8.70
2019-03-23T06:42:59.839Z,9.28
2019-03-23T06:45:28.598Z,9.55
2019-03-23T06:48:00.487Z,9.72
2019-03-23T06:50:29.805Z,9.95
2019-03-23T06:52:59.296Z,10.09
2019-03-23T06:55:28.690Z,10.25
2019-03-23T06:57:58.201Z,10.43
2019-03-23T07:00:27.630Z,10.51
2019-03-23T07:02:57.937Z,10.53
2019-03-23T07:05:27.385Z,11.18
2019-03-23T07:07:56.804Z,11.71
2019-03-23T07:10:26.216Z,12.42
2019-03-23T07:12:55.559Z,12.77
2019-03-23T07:15:24.934Z,12.13
2019-03-23T07:18:04.036Z,12.73
2019-03-23T07:20:34.749Z,13.83
2019-03-23T07:23:04.147Z,13.67
2019-03-23T07:25:33.492Z,12.24
2019-03-23T07:28:03.566Z,12.52
2019-03-23T07:30:36.290Z,13.62
2019-03-23T07:33:06.056Z,13.53
2019-03-23T07:35:35.868Z,13.03
2019-03-23T07:38:06.437Z,12.98
2019-03-23T07:40:36.081Z,12.78
2019-03-23T07:43:05.604Z,12.12
2019-03-23T07:45:35.056Z,12.47
2019-03-23T07:48:05.164Z,12.49
2019-03-23T07:50:34.592Z,12.26
2019-03-23T07:53:04.087Z,11.98
2019-03-23T07:55:33.564Z,12.05
2019-03-23T07:58:03.184Z,11.99
2019-03-23T08:00:32.918Z,12.08
2019-03-23T08:03:02.351Z,11.61
2019-03-23T08:05:31.922Z,11.77
2019-03-23T08:08:05.713Z,11.93
2019-03-23T08:10:36.836Z,12.07
2019-03-23T08:13:06.428Z,12.54
2019-03-23T08:15:36.030Z,13.07
2019-03-23T08:18:05.620Z,13.11
2019-03-23T08:20:35.227Z,12.70
2019-03-23T08:23:04.746Z,12.90
2019-03-23T08:25:34.643Z,13.22
2019-03-23T08:28:04.516Z,13.89
2019-03-23T08:30:34.896Z,13.98
2019-03-23T08:33:05.373Z,14.88
2019-03-23T08:35:36.402Z,15.26
2019-03-23T08:38:08.446Z,15.81
2019-03-23T08:40:40.230Z,15.06
2019-03-23T08:43:11.298Z,14.60
2019-03-23T08:45:42.051Z,15.00
2019-03-23T08:48:13.295Z,14.69
2019-03-23T08:50:43.020Z,14.12
2019-03-23T08:53:12.566Z,14.38
2019-03-23T08:55:42.014Z,14.63
2019-03-23T08:58:11.527Z,14.87
2019-03-23T09:00:40.978Z,14.37
2019-03-23T09:03:10.570Z,15.14
2019-03-23T09:05:40.241Z,14.90
2019-03-23T09:08:11.297Z,15.19
2019-03-23T09:10:40.889Z,15.53
2019-03-23T09:13:10.605Z,14.61
2019-03-23T09:15:40.284Z,14.09
2019-03-23T09:18:11.273Z,13.94
2019-03-23T09:20:40.875Z,14.75
2019-03-23T09:23:10.839Z,14.23
2019-03-23T09:25:42.399Z,14.28
2019-03-23T09:28:11.929Z,14.07
2019-03-23T09:30:41.597Z,14.10
2019-03-23T09:33:13.115Z,14.17
2019-03-23T09:35:42.516Z,14.51
2019-03-23T09:38:11.922Z,14.71
2019-03-23T09:40:41.566Z,14.58
2019-03-23T09:43:10.967Z,14.55
2019-03-23T09:45:40.515Z,14.81
2019-03-23T09:48:10.128Z,14.75
2019-03-23T09:50:39.736Z,15.22
2019-03-23T09:53:09.093Z,15.33
2019-03-23T09:55:38.675Z,15.55
2019-03-23T09:58:08.263Z,15.65
2019-03-23T10:00:37.696Z,15.72
2019-03-23T10:03:07.604Z,16.24
2019-03-23T10:05:36.979Z,15.92
2019-03-23T10:08:06.595Z,15.97
2019-03-23T10:10:36.172Z,16.04
2019-03-23T10:13:09.111Z,16.09
2019-03-23T10:15:39.051Z,15.92
2019-03-23T10:18:11.058Z,15.90
2019-03-23T10:20:40.496Z,16.17
2019-03-23T10:23:09.935Z,16.24
2019-03-23T10:25:39.326Z,16.14
2019-03-23T10:28:08.678Z,15.70
2019-03-23T10:30:38.281Z,16.18
2019-03-23T10:33:09.984Z,16.30
2019-03-23T10:35:39.438Z,16.11
2019-03-23T10:38:08.764Z,16.05
2019-03-23T10:40:38.214Z,16.12
2019-03-23T10:43:09.700Z,15.92
2019-03-23T10:45:44.070Z,15.93
2019-03-23T10:48:13.168Z,16.18
2019-03-23T10:50:42.686Z,15.96
2019-03-23T10:53:12.292Z,16.15
2019-03-23T10:55:41.816Z,16.44
2019-03-23T10:58:11.689Z,16.39
2019-03-23T11:00:41.336Z,16.42
2019-03-23T11:03:10.836Z,16.80
2019-03-23T11:05:40.178Z,16.72
2019-03-23T11:08:09.742Z,16.87
2019-03-23T11:10:41.956Z,16.89
2019-03-23T11:13:10.552Z,16.69
2019-03-23T11:15:42.082Z,16.85
2019-03-23T11:18:11.559Z,16.98
2019-03-23T11:20:40.996Z,17.04
2019-03-23T11:23:10.415Z,17.22
2019-03-23T11:25:41.353Z,17.49
2019-03-23T11:28:10.864Z,17.06
2019-03-23T11:30:40.630Z,17.05
2019-03-23T11:33:10.133Z,17.40
2019-03-23T11:35:39.542Z,17.31
2019-03-23T11:38:09.040Z,17.57
2019-03-23T11:40:38.564Z,17.50
2019-03-23T11:43:08.013Z,17.57
2019-03-23T11:45:37.438Z,17.58
2019-03-23T11:48:07.663Z,17.63
2019-03-23T11:50:37.215Z,17.61
2019-03-23T11:53:07.108Z,17.69
2019-03-23T11:55:36.722Z,17.87
2019-03-23T11:58:06.163Z,17.95
2019-03-23T12:00:35.495Z,18.12
2019-03-23T12:03:05.142Z,18.02
2019-03-23T12:05:34.697Z,17.80
2019-03-23T12:08:04.273Z,17.75
2019-03-23T12:10:36.501Z,17.77
2019-03-23T12:13:05.957Z,17.93
2019-03-23T12:15:35.529Z,18.06
2019-03-23T12:18:05.081Z,18.04
2019-03-23T12:20:34.485Z,17.94
2019-03-23T12:23:04.093Z,17.70
2019-03-23T12:25:33.596Z,17.86
2019-03-23T12:28:02.999Z,17.85
2019-03-23T12:30:32.535Z,17.88
2019-03-23T12:33:03.784Z,17.75
2019-03-23T12:35:33.145Z,17.74
2019-03-23T12:38:02.681Z,17.92
2019-03-23T12:40:32.304Z,18.09
2019-03-23T12:43:01.750Z,18.22
2019-03-23T12:45:31.436Z,18.21
2019-03-23T12:48:01.229Z,18.39
2019-03-23T12:50:30.760Z,18.25
2019-03-23T12:53:00.183Z,18.29
2019-03-23T12:55:29.618Z,18.39
2019-03-23T12:57:59.075Z,18.40
2019-03-23T13:00:28.758Z,18.40
2019-03-23T13:02:58.151Z,18.51
2019-03-23T13:05:27.525Z,18.60
2019-03-23T13:07:57.418Z,18.68
2019-03-23T13:10:26.817Z,18.68
2019-03-23T13:12:58.315Z,18.50
2019-03-23T13:15:27.418Z,18.51
2019-03-23T13:17:56.888Z,18.47
2019-03-23T13:20:26.906Z,18.37
2019-03-23T13:22:56.421Z,18.29
2019-03-23T13:25:26.807Z,18.23
2019-03-23T13:27:57.361Z,18.04
2019-03-23T13:30:27.366Z,18.11
2019-03-23T13:32:57.550Z,18.21
2019-03-23T13:35:26.929Z,18.48
2019-03-23T13:37:58.007Z,18.59
2019-03-23T13:40:27.472Z,18.81
2019-03-23T13:42:56.878Z,18.73
2019-03-23T13:45:26.406Z,18.68
2019-03-23T13:47:56.429Z,18.67
2019-03-23T13:50:29.339Z,18.61
2019-03-23T13:52:59.298Z,18.60
2019-03-23T13:55:30.592Z,18.76
2019-03-23T13:58:08.648Z,18.76
2019-03-23T14:00:38.287Z,18.79
2019-03-23T14:03:08.135Z,18.53
2019-03-23T14:05:37.961Z,18.45
2019-03-23T14:08:11.543Z,18.64
2019-03-23T14:10:41.054Z,18.39
2019-03-23T14:13:10.664Z,18.73
2019-03-23T14:15:41.416Z,18.60
2019-03-23T14:18:12.067Z,18.74
2019-03-23T14:20:41.461Z,18.84
2019-03-23T14:23:11.038Z,18.70
2019-03-23T14:25:41.389Z,18.66
2019-03-23T14:28:11.043Z,18.78
2019-03-23T14:30:41.023Z,18.42
2019-03-23T14:33:10.681Z,18.53
2019-03-23T14:35:42.471Z,18.52
2019-03-23T14:38:12.182Z,18.62
2019-03-23T14:40:41.671Z,18.63
2019-03-23T14:43:13.326Z,18.49
2019-03-23T14:45:43.815Z,18.51
2019-03-23T14:48:15.431Z,18.66
2019-03-23T14:50:45.331Z,18.43
2019-03-23T14:53:15.015Z,18.63
2019-03-23T14:55:44.697Z,18.63
2019-03-23T14:58:14.405Z,18.54
2019-03-23T15:00:46.399Z,18.56
2019-03-23T15:03:15.977Z,18.29
2019-03-23T15:05:45.455Z,18.30
2019-03-23T15:08:15.254Z,18.27
2019-03-23T15:10:44.904Z,18.41
2019-03-23T15:13:14.854Z,18.39
2019-03-23T15:15:46.962Z,18.16
2019-03-23T15:18:20.240Z,18.24
2019-03-23T15:20:52.870Z,18.25
2019-03-23T15:23:23.243Z,18.27
2019-03-23T15:25:52.687Z,18.18
2019-03-23T15:28:22.417Z,18.22
2019-03-23T15:30:54.217Z,18.31
2019-03-23T15:33:23.914Z,18.38
2019-03-23T15:35:54.633Z,18.23
2019-03-23T15:38:24.367Z,18.29
2019-03-23T15:40:54.415Z,18.24
2019-03-23T15:43:23.926Z,18.18
2019-03-23T15:45:53.657Z,18.30
2019-03-23T15:48:23.416Z,18.33
2019-03-23T15:50:53.179Z,18.34
2019-03-23T15:53:23.277Z,18.25
2019-03-23T15:55:53.325Z,18.19
2019-03-23T15:58:25.438Z,18.08
2019-03-23T16:00:55.209Z,18.03
2019-03-23T16:03:25.109Z,17.95
2019-03-23T16:05:54.619Z,17.76
2019-03-23T16:08:24.319Z,17.71
2019-03-23T16:10:55.201Z,17.72
2019-03-23T16:13:26.400Z,17.61
2019-03-23T16:15:57.851Z,17.62
2019-03-23T16:18:27.355Z,17.69
2019-03-23T16:20:56.902Z,17.69
2019-03-23T16:23:26.450Z,17.60
2019-03-23T16:25:55.916Z,17.53
2019-03-23T16:28:25.608Z,17.53
2019-03-23T16:30:56.710Z,17.54
2019-03-23T16:33:26.121Z,17.51
2019-03-23T16:35:55.597Z,17.39
2019-03-23T16:38:25.205Z,17.31
2019-03-23T16:40:54.791Z,17.24
2019-03-23T16:43:24.180Z,17.19
2019-03-23T16:45:54.077Z,17.13
2019-03-23T16:48:23.515Z,16.97
2019-03-23T16:50:53.108Z,16.87
2019-03-23T16:53:22.660Z,16.80
2019-03-23T16:55:52.127Z,16.70
2019-03-23T16:58:21.764Z,16.62
2019-03-23T17:00:51.144Z,16.52
2019-03-23T17:03:20.640Z,16.53
2019-03-23T17:05:50.136Z,16.45
2019-03-23T17:08:19.597Z,16.37
2019-03-23T17:10:49.145Z,16.29
2019-03-23T17:13:18.549Z,16.20
2019-03-23T17:15:48.111Z,16.06
2019-03-23T17:18:17.656Z,16.00
2019-03-23T17:20:50.264Z,15.93
2019-03-23T17:23:19.740Z,15.88
2019-03-23T17:25:49.258Z,15.77
2019-03-23T17:28:18.666Z,15.74
2019-03-23T17:30:48.679Z,15.61
2019-03-23T17:33:18.154Z,15.43
2019-03-23T17:35:47.689Z,15.20
2019-03-23T17:38:17.171Z,14.96
2019-03-23T17:40:46.637Z,14.95
2019-03-23T17:43:16.027Z,14.82
2019-03-23T17:45:45.464Z,14.89
2019-03-23T17:48:15.010Z,14.87
2019-03-23T17:50:44.477Z,14.73
2019-03-23T17:53:13.816Z,14.60
2019-03-23T17:55:43.247Z,14.22
2019-03-23T17:58:12.687Z,13.90
2019-03-23T18:00:42.335Z,13.69
2019-03-23T18:03:11.956Z,13.57
2019-03-23T18:05:41.598Z,13.49
2019-03-23T18:08:11.167Z,13.42
2019-03-23T18:10:40.800Z,13.25
2019-03-23T18:13:16.409Z,13.14
2019-03-23T18:15:41.664Z,13.10
2019-03-23T18:18:11.190Z,13.06
2019-03-23T18:20:40.809Z,13.08
2019-03-23T18:23:10.362Z,12.85
2019-03-23T18:25:39.910Z,12.66
2019-03-23T18:28:09.364Z,12.56
2019-03-23T18:30:41.074Z,12.37
2019-03-23T18:33:10.709Z,12.39
2019-03-23T18:35:43.313Z,12.13
2019-03-23T18:38:12.900Z,12.03
2019-03-23T18:40:42.894Z,11.96
2019-03-23T18:43:12.308Z,11.95
2019-03-23T18:45:41.999Z,11.83
2019-03-23T18:48:11.585Z,11.74
2019-03-23T18:50:42.769Z,11.67
2019-03-23T18:53:15.553Z,11.51
2019-03-23T18:55:45.274Z,11.38
2019-03-23T18:58:14.792Z,11.34
2019-03-23T19:00:44.697Z,11.31
2019-03-23T19:03:14.278Z,11.19
2019-03-23T19:05:43.843Z,11.07
2019-03-23T19:08:13.502Z,11.06
2019-03-23T19:10:44.175Z,11.00
2019-03-23T19:13:13.797Z,10.88
2019-03-23T19:15:43.336Z,10.74
2019-03-23T19:18:19.011Z,10.72
2019-03-23T19:20:48.698Z,10.65
2019-03-23T19:23:18.611Z,10.55
2019-03-23T19:25:48.219Z,10.43
2019-03-23T19:28:17.873Z,10.39
2019-03-23T19:30:48.634Z,10.37
2019-03-23T19:33:20.638Z,10.29
2019-03-23T19:35:50.099Z,10.23
2019-03-23T19:38:20.972Z,10.13
2019-03-23T19:40:50.615Z,10.21
2019-03-23T19:43:20.278Z,10.25
2019-03-23T19:45:49.595Z,10.25
2019-03-23T19:48:19.028Z,10.23
2019-03-23T19:50:48.514Z,10.32
2019-03-23T19:53:18.082Z,10.36
2019-03-23T19:55:48.698Z,10.41
2019-03-23T19:58:18.433Z,10.41
2019-03-23T20:00:51.217Z,10.41
2019-03-23T20:03:20.986Z,10.35
2019-03-23T20:05:51.448Z,10.35
2019-03-23T20:08:20.950Z,10.20
2019-03-23T20:10:51.411Z,10.06
2019-03-23T20:13:23.089Z,9.91
2019-03-23T20:15:52.958Z,9.86
2019-03-23T20:18:24.558Z,9.74
2019-03-23T20:20:54.018Z,9.66
2019-03-23T20:23:24.595Z,9.61
2019-03-23T20:25:54.156Z,9.51
2019-03-23T20:28:23.681Z,9.35
2019-03-23T20:30:54.205Z,9.25
2019-03-23T20:33:23.569Z,9.23
2019-03-23T20:35:52.966Z,9.21
2019-03-23T20:38:22.428Z,9.09
2019-03-23T20:40:51.911Z,8.98
2019-03-23T20:43:21.282Z,8.95
2019-03-23T20:45:50.816Z,8.92
2019-03-23T20:48:20.325Z,8.95
2019-03-23T20:50:51.078Z,8.93
2019-03-23T20:53:21.133Z,8.94
2019-03-23T20:55:52.289Z,8.95
2019-03-23T20:58:21.659Z,8.97
2019-03-23T21:00:51.303Z,8.98
2019-03-23T21:03:20.806Z,9.01
2019-03-23T21:05:50.176Z,8.98
2019-03-23T21:08:19.648Z,8.93
2019-03-23T21:10:49.261Z,8.91
2019-03-23T21:13:18.885Z,8.88
2019-03-23T21:15:48.357Z,8.88
2019-03-23T21:18:17.891Z,8.87
2019-03-23T21:20:48.401Z,8.84
2019-03-23T21:23:17.824Z,8.78
2019-03-23T21:25:47.348Z,8.71
2019-03-23T21:28:16.869Z,8.66
2019-03-23T21:30:46.429Z,8.60
2019-03-23T21:33:15.856Z,8.46
2019-03-23T21:35:45.563Z,8.53
2019-03-23T21:38:18.578Z,8.47
2019-03-23T21:40:48.379Z,8.42
2019-03-23T21:43:17.807Z,8.36
2019-03-23T21:45:47.237Z,8.32
2019-03-23T21:48:20.731Z,8.22
2019-03-23T21:50:50.389Z,8.20
2019-03-23T21:53:20.675Z,8.23
2019-03-23T21:55:50.187Z,8.20
2019-03-23T21:58:19.664Z,8.20
2019-03-23T22:00:49.102Z,8.18
2019-03-23T22:03:18.668Z,8.16
2019-03-23T22:05:48.182Z,8.11
2019-03-23T22:08:17.797Z,8.01
2019-03-23T22:10:47.254Z,7.92
2019-03-23T22:13:19.841Z,7.90
2019-03-23T22:15:52.535Z,7.92
2019-03-23T22:18:21.987Z,7.94
2019-03-23T22:20:51.538Z,7.89
2019-03-23T22:23:21.089Z,7.79
2019-03-23T22:25:50.708Z,7.69
2019-03-23T22:28:21.092Z,7.47
2019-03-23T22:30:50.734Z,7.58
2019-03-23T22:33:22.101Z,7.65
2019-03-23T22:35:51.714Z,7.71
2019-03-23T22:38:22.354Z,7.72
2019-03-23T22:40:51.973Z,7.71
2019-03-23T22:43:22.404Z,7.65
2019-03-23T22:45:51.895Z,7.60
2019-03-23T22:48:21.416Z,7.52
2019-03-23T22:50:50.858Z,7.37
2019-03-23T22:53:20.422Z,7.29
2019-03-23T22:55:49.839Z,7.16
2019-03-23T22:58:19.332Z,7.10
2019-03-23T23:00:49.019Z,7.17
2019-03-23T23:03:18.350Z,7.17
2019-03-23T23:05:48.114Z,7.18
2019-03-23T23:08:17.504Z,7.20
2019-03-23T23:10:46.914Z,7.19
2019-03-23T23:13:16.569Z,7.18
2019-03-23T23:15:45.886Z,7.18
2019-03-23T23:18:15.187Z,7.17
2019-03-23T23:20:44.534Z,7.16
2019-03-23T23:23:13.792Z,7.11
2019-03-23T23:25:43.217Z,7.01
2019-03-23T23:28:12.662Z,6.99
2019-03-23T23:30:44.961Z,6.95
2019-03-23T23:33:15.866Z,6.96
2019-03-23T23:35:45.348Z,6.74
2019-03-23T23:38:15.204Z,6.70
2019-03-23T23:40:44.582Z,6.71
2019-03-23T23:43:15.391Z,6.73
2019-03-23T23:45:45.913Z,6.72
2019-03-23T23:48:15.313Z,6.65
2019-03-23T23:50:44.645Z,6.56
2019-03-23T23:53:14.212Z,6.44
2019-03-23T23:55:43.598Z,6.34
2019-03-23T23:58:13.005Z,6.31
